createdAt,value
2023-03-16T00:02:06.421Z,99542.91
2023-03-16T00:04:37.684Z,99550.16
2023-03-16T00:07:05.977Z,99550.03
2023-03-16T00:09:32.659Z,99560.22
2023-03-16T00:12:03.320Z,99547.63
2023-03-16T00:14:30.960Z,99557.13
2023-03-16T00:16:57.969Z,99555.56
2023-03-16T00:19:24.900Z,99550.28
2023-03-16T00:21:51.985Z,99542.84
2023-03-16T00:24:20.221Z,99546.53
2023-03-16T00:26:47.793Z,99540.50
2023-03-16T00:29:14.683Z,99548.47
2023-03-16T00:31:44.720Z,99546.69
2023-03-16T00:34:12.275Z,99543.53
2023-03-16T00:36:39.371Z,99536.72
2023-03-16T00:39:07.098Z,99540.44
2023-03-16T00:41:38.209Z,99550.84
2023-03-16T00:44:05.797Z,99540.09
2023-03-16T00:46:32.889Z,99545.13
2023-03-16T00:48:59.656Z,99531.91
2023-03-16T00:51:26.315Z,99528.56
2023-03-16T00:53:53.001Z,99531.91
2023-03-16T00:56:19.740Z,99542.00
2023-03-16T00:58:46.351Z,99540.31
2023-03-16T01:01:16.416Z,99535.75
2023-03-16T01:03:43.258Z,99535.91
2023-03-16T01:06:17.392Z,99531.50
2023-03-16T01:08:44.526Z,99536.72
2023-03-16T01:11:17.513Z,99530.47
2023-03-16T01:13:45.054Z,99541.13
2023-03-16T01:16:11.722Z,99545.00
2023-03-16T01:18:38.595Z,99541.59
2023-03-16T01:21:06.944Z,99541.81
2023-03-16T01:23:34.067Z,99533.84
2023-03-16T01:26:02.547Z,99537.44
2023-03-16T01:28:31.953Z,99530.38
2023-03-16T01:31:05.608Z,99532.84
2023-03-16T01:33:33.893Z,99533.53
2023-03-16T01:36:04.481Z,99540.00
2023-03-16T01:38:31.350Z,99538.66
2023-03-16T01:40:58.459Z,99536.75
2023-03-16T01:43:27.592Z,99533.84
2023-03-16T01:46:27.834Z,99526.03
2023-03-16T01:49:27.615Z,99525.22
2023-03-16T01:51:58.382Z,99520.31
2023-03-16T01:54:53.163Z,99510.28
2023-03-16T01:57:22.293Z,99511.47
2023-03-16T01:59:55.764Z,99509.00
2023-03-16T02:02:24.798Z,99502.28
2023-03-16T02:04:56.877Z,99504.13
2023-03-16T02:07:26.295Z,99504.84
2023-03-16T02:09:56.225Z,99509.09
2023-03-16T02:12:22.986Z,99499.03
2023-03-16T02:14:50.520Z,99506.88
2023-03-16T02:17:19.993Z,99497.13
2023-03-16T02:20:01.655Z,99491.00
2023-03-16T02:22:28.651Z,99500.03
2023-03-16T02:24:55.407Z,99511.28
2023-03-16T02:27:40.324Z,99503.06
2023-03-16T02:30:13.670Z,99494.13
2023-03-16T02:32:41.047Z,99503.38
2023-03-16T02:35:09.456Z,99512.19
2023-03-16T02:37:36.345Z,99503.84
2023-03-16T02:40:18.658Z,99503.53
2023-03-16T02:42:45.257Z,99499.72
2023-03-16T02:45:12.726Z,99501.28
2023-03-16T02:47:42.366Z,99498.16
2023-03-16T02:50:11.168Z,99496.47
2023-03-16T02:52:38.482Z,99488.84
2023-03-16T02:55:06.975Z,99492.44
2023-03-16T02:57:33.897Z,99483.78
2023-03-16T03:00:01.530Z,99485.59
2023-03-16T03:02:28.266Z,99480.56
2023-03-16T03:04:54.880Z,99486.28
2023-03-16T03:07:21.979Z,99475.75
2023-03-16T03:09:48.632Z,99471.63
2023-03-16T03:12:15.302Z,99475.97
2023-03-16T03:14:42.227Z,99471.72
2023-03-16T03:17:10.463Z,99471.72
2023-03-16T03:19:37.412Z,99477.09
2023-03-16T03:22:06.573Z,99478.66
2023-03-16T03:24:34.217Z,99476.06
2023-03-16T03:27:01.372Z,99474.25
2023-03-16T03:29:34.773Z,99475.22
2023-03-16T03:32:02.250Z,99476.34
2023-03-16T03:34:29.508Z,99476.69
2023-03-16T03:36:56.389Z,99470.06
2023-03-16T03:39:22.984Z,99465.47
2023-03-16T03:41:49.589Z,99456.16
2023-03-16T03:44:16.358Z,99452.72
2023-03-16T03:46:43.033Z,99461.31
2023-03-16T03:49:09.850Z,99456.84
2023-03-16T03:51:36.627Z,99453.44
2023-03-16T03:54:03.503Z,99450.25
2023-03-16T03:56:30.355Z,99445.41
2023-03-16T03:58:57.762Z,99451.47
2023-03-16T04:01:25.161Z,99454.34
2023-03-16T04:03:51.952Z,99456.72
2023-03-16T04:06:18.589Z,99468.94
2023-03-16T04:08:45.282Z,99455.72
2023-03-16T04:11:12.160Z,99454.53
2023-03-16T04:13:38.721Z,99460.63
2023-03-16T04:16:05.911Z,99455.78
2023-03-16T04:18:38.852Z,99452.53
2023-03-16T04:21:06.704Z,99459.31
2023-03-16T04:23:34.370Z,99464.19
2023-03-16T04:26:01.844Z,99465.97
2023-03-16T04:28:28.527Z,99465.47
2023-03-16T04:30:55.381Z,99466.88
2023-03-16T04:33:22.638Z,99458.00
2023-03-16T04:35:49.985Z,99467.44
2023-03-16T04:38:16.732Z,99464.53
2023-03-16T04:40:43.538Z,99467.97
2023-03-16T04:43:10.236Z,99469.31
2023-03-16T04:45:36.880Z,99457.97
2023-03-16T04:48:03.937Z,99450.22
2023-03-16T04:50:31.880Z,99454.03
2023-03-16T04:52:58.608Z,99457.28
2023-03-16T04:55:25.235Z,99450.59
2023-03-16T04:57:52.708Z,99459.25
2023-03-16T05:00:20.744Z,99447.72
2023-03-16T05:02:48.224Z,99457.38
2023-03-16T05:05:15.481Z,99456.22
2023-03-16T05:07:46.295Z,99452.66
2023-03-16T05:10:15.486Z,99457.53
2023-03-16T05:12:42.235Z,99454.91
2023-03-16T05:15:09.673Z,99452.88
2023-03-16T05:17:36.243Z,99452.53
2023-03-16T05:20:08.470Z,99454.81
2023-03-16T05:22:38.039Z,99449.28
2023-03-16T05:25:05.767Z,99450.78
2023-03-16T05:27:32.341Z,99446.34
2023-03-16T05:29:58.999Z,99450.09
2023-03-16T05:32:25.704Z,99452.53
2023-03-16T05:34:53.394Z,99450.78
2023-03-16T05:37:20.104Z,99445.38
2023-03-16T05:39:46.771Z,99447.09
2023-03-16T05:42:13.868Z,99446.16
2023-03-16T05:44:40.648Z,99445.19
2023-03-16T05:47:07.353Z,99451.34
2023-03-16T05:49:33.947Z,99451.81
2023-03-16T05:52:00.567Z,99457.69
2023-03-16T05:54:27.207Z,99454.84
2023-03-16T05:56:54.789Z,99444.69
2023-03-16T05:59:21.427Z,99453.91
2023-03-16T06:01:49.812Z,99458.00
2023-03-16T06:04:16.566Z,99464.72
2023-03-16T06:06:43.809Z,99461.31
2023-03-16T06:09:10.627Z,99463.28
2023-03-16T06:11:37.329Z,99467.22
2023-03-16T06:14:04.414Z,99464.09
2023-03-16T06:16:31.144Z,99469.69
2023-03-16T06:18:59.784Z,99459.34
2023-03-16T06:21:26.654Z,99461.09
2023-03-16T06:23:53.830Z,99461.66
2023-03-16T06:26:20.493Z,99466.53
2023-03-16T06:28:48.716Z,99460.75
2023-03-16T06:31:15.570Z,99462.09
2023-03-16T06:33:42.632Z,99458.28
2023-03-16T06:36:09.441Z,99459.72
2023-03-16T06:38:36.249Z,99467.66
2023-03-16T06:41:03.005Z,99463.72
2023-03-16T06:43:30.024Z,99461.13
2023-03-16T06:45:57.593Z,99466.41
2023-03-16T06:48:24.564Z,99461.50
2023-03-16T06:50:52.290Z,99469.19
2023-03-16T06:53:18.934Z,99466.94
2023-03-16T06:55:46.398Z,99461.94
2023-03-16T06:58:14.362Z,99455.28
2023-03-16T07:00:41.030Z,99469.97
2023-03-16T07:03:07.756Z,99462.72
2023-03-16T07:05:34.520Z,99474.88
2023-03-16T07:08:01.457Z,99473.22
2023-03-16T07:10:28.550Z,99472.03
2023-03-16T07:12:55.523Z,99477.69
2023-03-16T07:15:22.264Z,99474.81
2023-03-16T07:17:49.249Z,99484.56
2023-03-16T07:20:16.239Z,99479.03
2023-03-16T07:22:42.887Z,99471.00
2023-03-16T07:25:11.580Z,99475.63
2023-03-16T07:27:39.153Z,99480.19
2023-03-16T07:30:06.749Z,99476.31
2023-03-16T07:32:33.781Z,99478.41
2023-03-16T07:35:00.573Z,99471.06
2023-03-16T07:37:27.392Z,99464.03
2023-03-16T07:39:54.608Z,99473.16
2023-03-16T07:42:23.002Z,99466.16
2023-03-16T07:44:51.868Z,99471.09
2023-03-16T07:47:18.866Z,99468.19
2023-03-16T07:49:45.533Z,99473.91
2023-03-16T07:52:15.154Z,99469.38
2023-03-16T07:54:42.010Z,99469.00
2023-03-16T07:57:09.027Z,99476.03
2023-03-16T07:59:35.701Z,99472.25
2023-03-16T08:02:02.318Z,99480.16
2023-03-16T08:04:28.991Z,99483.19
2023-03-16T08:07:00.489Z,99483.78
2023-03-16T08:09:27.774Z,99478.31
2023-03-16T08:11:54.469Z,99491.06
2023-03-16T08:14:21.169Z,99485.06
2023-03-16T08:16:47.808Z,99485.66
2023-03-16T08:19:14.735Z,99483.66
2023-03-16T08:21:58.276Z,99480.47
2023-03-16T08:24:29.784Z,99489.75
2023-03-16T08:26:57.718Z,99478.47
2023-03-16T08:29:25.254Z,99478.53
2023-03-16T08:31:56.777Z,99475.94
2023-03-16T08:34:24.255Z,99481.00
2023-03-16T08:36:50.922Z,99484.19
2023-03-16T08:39:17.522Z,99484.84
2023-03-16T08:41:46.136Z,99478.13
2023-03-16T08:44:13.320Z,99481.25
2023-03-16T08:46:40.952Z,99483.09
2023-03-16T08:49:07.648Z,99481.09
2023-03-16T08:51:34.874Z,99473.03
2023-03-16T08:54:01.544Z,99477.19
2023-03-16T08:56:30.842Z,99478.78
2023-03-16T08:58:57.707Z,99484.41
2023-03-16T09:01:25.896Z,99478.16
2023-03-16T09:03:53.339Z,99474.75
2023-03-16T09:06:20.132Z,99484.97
2023-03-16T09:08:47.962Z,99486.19
2023-03-16T09:11:19.315Z,99482.47
2023-03-16T09:13:46.461Z,99486.13
2023-03-16T09:16:15.412Z,99484.34
2023-03-16T09:18:43.653Z,99484.03
2023-03-16T09:21:14.064Z,99485.25
2023-03-16T09:23:42.924Z,99492.56
2023-03-16T09:26:10.466Z,99484.84
2023-03-16T09:28:39.217Z,99484.03
2023-03-16T09:31:07.255Z,99481.13
2023-03-16T09:33:35.592Z,99485.84
2023-03-16T09:36:03.297Z,99478.03
2023-03-16T09:38:30.660Z,99479.50
2023-03-16T09:41:00.996Z,99482.09
2023-03-16T09:43:27.857Z,99471.53
2023-03-16T09:46:02.996Z,99468.97
2023-03-16T09:48:31.120Z,99468.84
2023-03-16T09:51:00.186Z,99472.81
2023-03-16T09:53:32.706Z,99465.94
2023-03-16T09:56:03.746Z,99465.41
2023-03-16T09:58:32.476Z,99454.34
2023-03-16T10:01:23.553Z,99459.03
2023-03-16T10:04:41.089Z,99452.97
2023-03-16T10:07:38.428Z,99457.91
2023-03-16T10:10:31.442Z,99457.78
2023-03-16T10:13:00.143Z,99458.84
2023-03-16T10:15:30.154Z,99447.53
2023-03-16T10:18:13.694Z,99443.78
2023-03-16T10:20:42.145Z,99445.84
2023-03-16T10:23:18.811Z,99449.66
2023-03-16T10:25:51.906Z,99456.63
2023-03-16T10:28:25.057Z,99461.84
2023-03-16T10:30:54.826Z,99445.53
2023-03-16T10:33:27.423Z,99442.66
2023-03-16T10:36:19.548Z,99443.53
2023-03-16T10:39:08.090Z,99438.66
2023-03-16T10:41:46.040Z,99438.72
2023-03-16T10:44:16.958Z,99435.03
2023-03-16T10:46:58.151Z,99439.47
2023-03-16T10:49:36.289Z,99432.97
2023-03-16T10:52:11.809Z,99429.47
2023-03-16T10:54:40.952Z,99426.16
2023-03-16T10:57:27.177Z,99420.31
2023-03-16T10:59:57.826Z,99414.75
2023-03-16T11:02:32.020Z,99409.09
2023-03-16T11:04:58.743Z,99400.44
2023-03-16T11:07:25.800Z,99406.50
2023-03-16T11:09:53.870Z,99409.59
2023-03-16T11:12:31.203Z,99405.41
2023-03-16T11:15:09.382Z,99392.94
2023-03-16T11:17:44.957Z,99391.72
2023-03-16T11:20:22.440Z,99395.09
2023-03-16T11:22:49.434Z,99397.00
2023-03-16T11:25:31.540Z,99396.28
2023-03-16T11:28:12.208Z,99386.78
2023-03-16T11:31:25.342Z,99383.94
2023-03-16T11:33:52.475Z,99387.81
2023-03-16T11:36:40.559Z,99382.38
2023-03-16T11:39:40.694Z,99382.94
2023-03-16T11:42:27.866Z,99382.00
2023-03-16T11:44:59.710Z,99381.75
2023-03-16T11:48:08.458Z,99376.28
2023-03-16T11:50:48.367Z,99370.34
2023-03-16T11:53:47.998Z,99370.22
2023-03-16T11:56:42.741Z,99368.63
2023-03-16T11:59:30.550Z,99359.84
2023-03-16T12:02:21.694Z,99349.13
2023-03-16T12:04:57.526Z,99338.41
2023-03-16T12:07:53.481Z,99339.38
2023-03-16T12:10:43.880Z,99327.91
2023-03-16T12:13:31.249Z,99324.63
2023-03-16T12:16:06.813Z,99319.97
2023-03-16T12:18:40.170Z,99325.19
2023-03-16T12:21:13.375Z,99322.53
2023-03-16T12:23:44.351Z,99326.84
2023-03-16T12:26:12.697Z,99321.09
2023-03-16T12:28:41.330Z,99331.56
2023-03-16T12:31:20.358Z,99318.31
2023-03-16T12:33:58.948Z,99325.09
2023-03-16T12:36:41.924Z,99310.78
2023-03-16T12:39:45.883Z,99315.78
2023-03-16T12:42:37.018Z,99305.88
2023-03-16T12:45:11.568Z,99300.75
2023-03-16T12:48:11.516Z,99297.75
2023-03-16T12:50:49.382Z,99282.59
2023-03-16T12:53:49.009Z,99280.88
2023-03-16T12:56:19.098Z,99279.28
2023-03-16T12:58:50.825Z,99290.16
2023-03-16T13:01:29.683Z,99287.56
2023-03-16T13:04:15.207Z,99275.69
2023-03-16T13:07:07.833Z,99271.81
2023-03-16T13:09:37.279Z,99271.25
2023-03-16T13:12:07.390Z,99277.75
2023-03-16T13:14:42.485Z,99267.50
2023-03-16T13:17:23.831Z,99250.78
2023-03-16T13:20:31.187Z,99248.72
2023-03-16T13:23:29.944Z,99256.66
2023-03-16T13:26:50.808Z,99249.44
2023-03-16T13:29:33.754Z,99250.78
2023-03-16T13:32:03.979Z,99252.94
2023-03-16T13:34:32.967Z,99239.50
2023-03-16T13:37:01.720Z,99239.56
2023-03-16T13:39:30.407Z,99236.81
2023-03-16T13:42:24.592Z,99239.31
2023-03-16T13:44:57.005Z,99239.25
2023-03-16T13:47:26.725Z,99241.34
2023-03-16T13:49:58.611Z,99248.00
2023-03-16T13:52:29.496Z,99227.84
2023-03-16T13:54:57.715Z,99208.63
2023-03-16T13:57:32.515Z,99216.16
2023-03-16T14:00:16.041Z,99212.75
2023-03-16T14:02:43.950Z,99200.31
2023-03-16T14:05:17.380Z,99194.94
2023-03-16T14:07:47.432Z,99197.22
2023-03-16T14:10:17.389Z,99189.88
2023-03-16T14:12:51.913Z,99190.34
2023-03-16T14:15:19.076Z,99186.22
2023-03-16T14:17:45.897Z,99177.25
2023-03-16T14:20:22.895Z,99176.16
2023-03-16T14:22:53.599Z,99174.06
2023-03-16T14:25:25.684Z,99174.50
2023-03-16T14:28:06.402Z,99171.78
2023-03-16T14:30:33.186Z,99160.41
2023-03-16T14:33:06.162Z,99148.63
2023-03-16T14:35:43.982Z,99148.50
2023-03-16T14:38:22.840Z,99144.34
2023-03-16T14:40:55.179Z,99131.78
2023-03-16T14:43:36.818Z,99141.94
2023-03-16T14:46:05.682Z,99140.59
2023-03-16T14:48:33.120Z,99142.25
2023-03-16T14:51:02.346Z,99143.47
2023-03-16T14:53:29.709Z,99145.31
2023-03-16T14:55:56.946Z,99150.81
2023-03-16T14:58:24.090Z,99143.38
2023-03-16T15:00:53.542Z,99135.69
2023-03-16T15:03:22.961Z,99149.78
2023-03-16T15:05:51.249Z,99143.94
2023-03-16T15:08:26.816Z,99139.00
2023-03-16T15:10:54.637Z,99131.00
2023-03-16T15:13:41.243Z,99132.06
2023-03-16T15:16:11.724Z,99135.63
2023-03-16T15:18:42.049Z,99125.31
2023-03-16T15:21:18.506Z,99121.06
2023-03-16T15:23:45.508Z,99118.31
2023-03-16T15:26:14.103Z,99110.56
2023-03-16T15:28:41.155Z,99118.78
2023-03-16T15:31:08.107Z,99119.88
2023-03-16T15:33:34.837Z,99117.09
2023-03-16T15:36:03.637Z,99098.00
2023-03-16T15:38:32.675Z,99099.53
2023-03-16T15:40:59.802Z,99094.97
2023-03-16T15:43:29.117Z,99099.63
2023-03-16T15:45:57.680Z,99091.06
2023-03-16T15:48:26.568Z,99078.22
2023-03-16T15:51:01.333Z,99077.09
2023-03-16T15:53:32.622Z,99079.38
2023-03-16T15:56:03.289Z,99080.47
2023-03-16T15:58:30.985Z,99084.09
2023-03-16T16:01:00.004Z,99083.19
2023-03-16T16:03:27.562Z,99076.75
2023-03-16T16:05:54.586Z,99063.22
2023-03-16T16:08:21.766Z,99069.38
2023-03-16T16:10:49.812Z,99065.50
2023-03-16T16:13:21.468Z,99078.97
2023-03-16T16:15:49.121Z,99077.88
2023-03-16T16:18:30.773Z,99071.50
2023-03-16T16:20:58.860Z,99065.41
2023-03-16T16:23:26.273Z,99070.03
2023-03-16T16:25:58.782Z,99081.22
2023-03-16T16:28:29.512Z,99071.28
2023-03-16T16:30:56.750Z,99070.19
2023-03-16T16:33:31.818Z,99061.16
2023-03-16T16:36:00.833Z,99068.56
2023-03-16T16:38:28.236Z,99062.06
2023-03-16T16:40:58.247Z,99061.06
2023-03-16T16:43:32.964Z,99060.53
2023-03-16T16:46:01.322Z,99062.47
2023-03-16T16:48:37.233Z,99062.06
2023-03-16T16:51:07.426Z,99061.31
2023-03-16T16:53:34.485Z,99058.97
2023-03-16T16:56:02.177Z,99050.38
2023-03-16T16:58:28.995Z,99050.16
2023-03-16T17:00:57.148Z,99043.50
2023-03-16T17:03:28.655Z,99046.13
2023-03-16T17:05:58.370Z,99038.66
2023-03-16T17:08:26.420Z,99047.88
2023-03-16T17:10:54.103Z,99042.09
2023-03-16T17:13:27.527Z,99043.94
2023-03-16T17:15:55.295Z,99051.00
2023-03-16T17:18:22.580Z,99049.88
2023-03-16T17:20:50.844Z,99049.88
2023-03-16T17:23:33.465Z,99052.50
2023-03-16T17:26:28.839Z,99044.66
2023-03-16T17:29:06.379Z,99038.50
2023-03-16T17:31:36.713Z,99035.44
2023-03-16T17:34:19.028Z,99035.38
2023-03-16T17:36:47.002Z,99038.03
2023-03-16T17:39:38.638Z,99036.84
2023-03-16T17:42:07.452Z,99037.84
2023-03-16T17:44:38.957Z,99039.19
2023-03-16T17:47:36.552Z,99035.72
2023-03-16T17:50:22.590Z,99036.69
2023-03-16T17:52:49.793Z,99024.34
2023-03-16T17:55:20.581Z,99018.44
2023-03-16T17:57:49.909Z,99025.78
2023-03-16T18:00:36.144Z,99036.47
2023-03-16T18:03:14.408Z,99039.34
2023-03-16T18:05:41.410Z,99033.63
2023-03-16T18:08:15.423Z,99039.50
2023-03-16T18:10:42.292Z,99034.84
2023-03-16T18:13:18.329Z,99029.50
2023-03-16T18:15:47.204Z,99025.34
2023-03-16T18:18:21.621Z,99013.13
2023-03-16T18:20:51.037Z,99017.59
2023-03-16T18:23:23.110Z,99026.00
2023-03-16T18:25:53.100Z,99026.28
2023-03-16T18:28:20.787Z,99018.22
2023-03-16T18:30:52.660Z,99026.75
2023-03-16T18:33:27.809Z,99029.38
2023-03-16T18:36:01.310Z,99026.28
2023-03-16T18:38:36.404Z,99027.34
2023-03-16T18:41:21.069Z,99027.47
2023-03-16T18:43:48.220Z,99022.25
2023-03-16T18:46:28.342Z,99015.84
2023-03-16T18:48:57.380Z,99023.69
2023-03-16T18:51:24.246Z,99022.97
2023-03-16T18:53:51.042Z,99019.63
2023-03-16T18:56:21.741Z,99020.59
2023-03-16T18:58:50.151Z,99032.69
2023-03-16T19:01:30.899Z,99028.41
2023-03-16T19:03:59.241Z,99024.41
2023-03-16T19:06:32.702Z,99031.03
2023-03-16T19:09:29.549Z,99027.72
2023-03-16T19:11:57.239Z,99015.38
2023-03-16T19:14:33.131Z,99019.91
2023-03-16T19:17:01.408Z,99016.09
2023-03-16T19:19:28.968Z,99020.84
2023-03-16T19:21:58.380Z,99024.16
2023-03-16T19:24:31.420Z,99020.75
2023-03-16T19:26:58.317Z,99019.78
2023-03-16T19:29:34.171Z,99022.13
2023-03-16T19:32:01.662Z,99018.25
2023-03-16T19:34:29.237Z,99022.72
2023-03-16T19:36:55.978Z,99023.94
2023-03-16T19:39:22.953Z,99012.44
2023-03-16T19:41:55.327Z,99014.19
2023-03-16T19:44:25.486Z,99007.66
2023-03-16T19:46:52.616Z,99020.13
2023-03-16T19:49:22.122Z,99017.03
2023-03-16T19:51:53.793Z,99017.03
2023-03-16T19:54:26.436Z,99011.81
2023-03-16T19:56:56.103Z,99011.09
2023-03-16T19:59:24.883Z,99016.69
2023-03-16T20:01:51.755Z,99018.94
2023-03-16T20:04:21.951Z,99016.44
2023-03-16T20:06:50.018Z,99016.31
2023-03-16T20:09:17.666Z,99017.00
2023-03-16T20:11:44.703Z,99005.41
2023-03-16T20:14:19.387Z,98997.81
2023-03-16T20:16:50.330Z,98999.97
2023-03-16T20:19:17.052Z,99005.50
2023-03-16T20:21:43.985Z,98995.66
2023-03-16T20:24:19.835Z,98998.63
2023-03-16T20:26:48.480Z,99004.22
2023-03-16T20:29:27.723Z,99004.22
2023-03-16T20:31:54.434Z,99001.81
2023-03-16T20:34:25.207Z,98994.97
2023-03-16T20:36:51.987Z,98998.53
2023-03-16T20:39:18.709Z,98989.84
2023-03-16T20:41:45.743Z,98986.38
2023-03-16T20:44:19.018Z,98982.59
2023-03-16T20:46:47.305Z,98973.25
2023-03-16T20:49:30.141Z,98983.19
2023-03-16T20:51:56.990Z,98984.50
2023-03-16T20:54:24.926Z,98984.53
2023-03-16T20:56:54.062Z,98989.16
2023-03-16T20:59:25.170Z,98983.06
2023-03-16T21:01:54.761Z,98992.06
2023-03-16T21:04:28.420Z,98985.31
2023-03-16T21:06:56.245Z,98973.59
2023-03-16T21:09:27.093Z,98982.00
2023-03-16T21:11:56.907Z,98979.50
2023-03-16T21:14:24.597Z,98988.38
2023-03-16T21:16:52.612Z,98979.25
2023-03-16T21:19:21.840Z,98983.06
2023-03-16T21:21:48.982Z,98977.13
2023-03-16T21:24:16.407Z,98967.16
2023-03-16T21:26:44.242Z,98970.00
2023-03-16T21:29:21.734Z,98963.47
2023-03-16T21:31:49.060Z,98961.94
2023-03-16T21:34:24.272Z,98969.31
2023-03-16T21:36:51.147Z,98961.72
2023-03-16T21:39:19.779Z,98967.88
2023-03-16T21:41:47.940Z,98962.66
2023-03-16T21:44:14.546Z,98976.88
2023-03-16T21:46:41.337Z,98963.25
2023-03-16T21:49:11.167Z,98966.94
2023-03-16T21:51:37.861Z,98965.50
2023-03-16T21:54:08.013Z,98958.63
2023-03-16T21:56:36.214Z,98960.44
2023-03-16T21:59:02.968Z,98950.34
2023-03-16T22:01:31.840Z,98944.41
2023-03-16T22:04:04.429Z,98944.63
2023-03-16T22:06:32.133Z,98941.56
2023-03-16T22:08:59.873Z,98936.34
2023-03-16T22:11:28.601Z,98929.47
2023-03-16T22:13:56.351Z,98926.28
2023-03-16T22:16:26.154Z,98921.31
2023-03-16T22:18:57.244Z,98926.63
2023-03-16T22:21:29.164Z,98921.53
2023-03-16T22:23:56.878Z,98923.09
2023-03-16T22:26:23.844Z,98924.97
2023-03-16T22:28:51.039Z,98918.72
2023-03-16T22:31:38.967Z,98916.53
2023-03-16T22:34:06.624Z,98923.69
2023-03-16T22:36:33.896Z,98922.50
2023-03-16T22:39:08.334Z,98923.09
2023-03-16T22:41:35.270Z,98926.16
2023-03-16T22:44:02.043Z,98913.81
2023-03-16T22:46:29.352Z,98913.13
2023-03-16T22:48:56.488Z,98914.78
2023-03-16T22:51:30.464Z,98914.78
2023-03-16T22:54:08.727Z,98915.75
2023-03-16T22:56:35.848Z,98904.72
2023-03-16T22:59:06.387Z,98896.31
2023-03-16T23:01:44.011Z,98895.84
2023-03-16T23:04:15.789Z,98890.75
2023-03-16T23:06:42.851Z,98896.16
2023-03-16T23:09:13.949Z,98897.00
2023-03-16T23:11:43.545Z,98890.25
2023-03-16T23:14:18.943Z,98886.09
2023-03-16T23:16:46.945Z,98880.63
2023-03-16T23:19:36.810Z,98881.47
2023-03-16T23:22:05.890Z,98876.94
2023-03-16T23:24:33.515Z,98867.25
2023-03-16T23:27:00.911Z,98865.94
2023-03-16T23:29:28.239Z,98868.44
2023-03-16T23:31:54.964Z,98866.78
2023-03-16T23:34:23.463Z,98872.22
2023-03-16T23:36:51.124Z,98875.88
2023-03-16T23:39:18.033Z,98861.91
2023-03-16T23:41:48.869Z,98858.97
2023-03-16T23:44:17.918Z,98858.59
2023-03-16T23:46:44.876Z,98859.31
2023-03-16T23:49:18.642Z,98861.69
2023-03-16T23:51:46.330Z,98877.31
2023-03-16T23:54:24.976Z,98888.00
2023-03-16T23:56:52.154Z,98874.81
2023-03-16T23:59:19.732Z,98873.44
